Time;durP1;ratioP1;P1;durP2;ratioP2;P2;SDS_P1;SDS_P2;PMS_P1;PMS_P2;Temp;Humidity;BMP_temperature;BMP_pressure;BME280_temperature;BME280_humidity;BME280_pressure;Samples;Min_cycle;Max_cycle;Signal;HPM_P1;HPM_P2
2022/12/24 00:02:02;;;;;;;;;;;;;;;;;;5118290;27;19911;-75
2022/12/24 00:04:49;;;;;;;;;;;;;;;;;;5118203;28;20677;-75
2022/12/24 00:07:35;;;;;;;;;;;;;;;;;;5117915;27;19916;-74
2022/12/24 00:10:22;;;;;;;;;;;;;;;;;;5106169;27;20255;-75
2022/12/24 00:13:08;;;;;;;;;;;;;;;;;;5119937;27;19986;-75
2022/12/24 00:15:55;;;;;;;;;;;;;;;;;;5124484;27;19931;-75
2022/12/24 00:18:41;;;;;;;;;;;;;;;;;;5116530;27;20318;-75
2022/12/24 00:21:28;;;;;;;;;;;;;;;;;;5122152;27;20374;-76
2022/12/24 00:24:14;;;;;;;;;;;;;;;;;;5109732;27;19908;-76
2022/12/24 00:27:02;;;;;;;;;;;;;;;;;;5122103;27;19927;-75
2022/12/24 00:29:48;;;;;;;;;;;;;;;;;;5125529;27;20371;-75
2022/12/24 00:32:36;;;;;;;;;;;;;;;;;;5121248;27;19911;-75
2022/12/24 00:35:23;;;;;;;;;;;;;;;;;;5124329;27;19918;-76
2022/12/24 00:38:09;;;;;;;;;;;;;;;;;;5122514;27;19911;-76
2022/12/24 00:40:56;;;;;;;;;;;;;;;;;;5117883;27;20298;-75
2022/12/24 00:43:42;;;;;;;;;;;;;;;;;;5124463;27;19915;-75
2022/12/24 00:46:29;;;;;;;;;;;;;;;;;;5112064;27;19934;-75
2022/12/24 00:49:15;;;;;;;;;;;;;;;;;;5131401;27;19907;-75
2022/12/24 00:52:02;;;;;;;;;;;;;;;;;;5129245;27;20312;-75
2022/12/24 00:54:48;;;;;;;;;;;;;;;;;;5125278;27;19915;-76
2022/12/24 00:57:35;;;;;;;;;;;;;;;;;;5129734;27;19916;-76
2022/12/24 01:00:21;;;;;;;;;;;;;;;;;;5118499;27;19938;-76
2022/12/24 01:03:08;;;;;;;;;;;;;;;;;;5128499;27;19915;-75
2022/12/24 01:05:54;;;;;;;;;;;;;;;;;;5125575;27;19922;-75
2022/12/24 01:08:40;;;;;;;;;;;;;;;;;;5129040;27;19919;-75
2022/12/24 01:11:27;;;;;;;;;;;;;;;;;;5112368;27;19953;-75
2022/12/24 01:14:13;;;;;;;;;;;;;;;;;;5103145;28;20364;-75
2022/12/24 01:17:00;;;;;;;;;;;;;;;;;;5110875;27;19916;-75
2022/12/24 01:19:46;;;;;;;;;;;;;;;;;;5096815;28;19923;-75
2022/12/24 01:22:33;;;;;;;;;;;;;;;;;;5092325;27;19931;-74
2022/12/24 01:25:20;;;;;;;;;;;;;;;;;;5113578;27;19938;-75
2022/12/24 01:28:06;;;;;;;;;;;;;;;;;;5101147;28;19931;-74
2022/12/24 01:30:53;;;;;;;;;;;;;;;;;;5097110;28;19916;-75
2022/12/24 01:33:40;;;;;;;;;;;;;;;;;;5127273;27;19916;-73
2022/12/24 01:36:26;;;;;;;;;;;;;;;;;;5128223;27;19911;-73
2022/12/24 01:39:12;;;;;;;;;;;;;;;;;;5127299;27;19922;-74
2022/12/24 01:45:04;;;;;;;;;;;;;;;;;;5123213;27;19918;-73
2022/12/24 01:47:51;;;;;;;;;;;;;;;;;;5126677;27;19939;-73
2022/12/24 01:50:37;;;;;;;;;;;;;;;;;;5119207;27;20405;-74
2022/12/24 01:53:24;;;;;;;;;;;;;;;;;;5130456;27;19911;-74
2022/12/24 01:56:10;;;;;;;;;;;;;;;;;;5123547;27;20291;-75
2022/12/24 01:58:57;;;;;;;;;;;;;;;;;;5123434;27;19922;-75
2022/12/24 02:01:43;;;;;;;;;;;;;;;;;;5118712;27;19934;-75
2022/12/24 02:04:29;;;;;;;;;;;;;;;;;;5111822;27;19916;-75
2022/12/24 02:07:16;;;;;;;;;;;;;;;;;;5121322;27;20016;-75
2022/12/24 02:10:02;;;;;;;;;;;;;;;;;;5127559;27;19911;-75
2022/12/24 02:12:49;;;;;;;;;;;;;;;;;;5122795;27;19915;-74
2022/12/24 02:15:35;;;;;;;;;;;;;;;;;;5121635;27;20335;-75
2022/12/24 02:18:22;;;;;;;;;;;;;;;;;;5125935;27;19921;-74
2022/12/24 02:21:08;;;;;;;;;;;;;;;;;;5114030;27;19924;-74
2022/12/24 02:23:55;;;;;;;;;;;;;;;;;;5122478;27;19931;-74
2022/12/24 02:26:41;;;;;;;;;;;;;;;;;;5122853;27;20393;-77
2022/12/24 02:29:28;;;;;;;;;;;;;;;;;;5118693;27;20017;-75
2022/12/24 02:32:14;;;;;;;;;;;;;;;;;;5121211;27;20367;-75
2022/12/24 02:35:01;;;;;;;;;;;;;;;;;;5121862;27;19926;-74
2022/12/24 02:37:47;;;;;;;;;;;;;;;;;;5114998;27;19916;-75
2022/12/24 02:40:34;;;;;;;;;;;;;;;;;;5120725;27;19911;-75
2022/12/24 02:43:20;;;;;;;;;;;;;;;;;;5127202;27;19919;-75
2022/12/24 02:46:07;;;;;;;;;;;;;;;;;;5111760;27;19911;-75
2022/12/24 02:48:53;;;;;;;;;;;;;;;;;;5130375;27;19919;-75
2022/12/24 02:51:40;;;;;;;;;;;;;;;;;;5124789;27;20287;-74
2022/12/24 02:54:26;;;;;;;;;;;;;;;;;;5126185;27;19922;-75
2022/12/24 02:57:13;;;;;;;;;;;;;;;;;;5117998;27;19912;-74
2022/12/24 03:00:00;;;;;;;;;;;;;;;;;;5115226;27;19912;-75
2022/12/24 03:02:46;;;;;;;;;;;;;;;;;;5125879;27;19915;-74
2022/12/24 03:05:33;;;;;;;;;;;;;;;;;;5116360;27;19916;-75
2022/12/24 03:08:19;;;;;;;;;;;;;;;;;;5126733;27;19923;-75
2022/12/24 03:11:06;;;;;;;;;;;;;;;;;;5120402;27;19907;-75
2022/12/24 03:13:52;;;;;;;;;;;;;;;;;;5127602;27;19918;-74
2022/12/24 03:16:39;;;;;;;;;;;;;;;;;;5110084;27;19915;-76
2022/12/24 03:19:25;;;;;;;;;;;;;;;;;;5120457;27;19931;-75
2022/12/24 03:22:12;;;;;;;;;;;;;;;;;;5130516;27;19930;-76
2022/12/24 03:24:58;;;;;;;;;;;;;;;;;;5116379;27;19907;-74
2022/12/24 03:27:45;;;;;;;;;;;;;;;;;;5111489;27;19925;-75
2022/12/24 03:30:31;;;;;;;;;;;;;;;;;;5122390;27;19912;-74
2022/12/24 03:33:18;;;;;;;;;;;;;;;;;;5122050;27;19912;-74
2022/12/24 03:36:04;;;;;;;;;;;;;;;;;;5123936;27;19916;-75
2022/12/24 03:38:51;;;;;;;;;;;;;;;;;;5122257;27;19920;-74
2022/12/24 03:41:38;;;;;;;;;;;;;;;;;;5123712;27;19908;-75
2022/12/24 03:44:24;;;;;;;;;;;;;;;;;;5114145;27;19916;-75
2022/12/24 03:47:11;;;;;;;;;;;;;;;;;;5110872;27;20354;-75
2022/12/24 03:49:57;;;;;;;;;;;;;;;;;;5122744;28;19911;-74
2022/12/24 03:52:44;;;;;;;;;;;;;;;;;;5113743;28;19920;-73
2022/12/24 03:55:30;;;;;;;;;;;;;;;;;;5124912;28;20359;-76
2022/12/24 03:58:17;;;;;;;;;;;;;;;;;;5119435;27;19915;-74
2022/12/24 04:01:03;;;;;;;;;;;;;;;;;;5102004;28;19918;-74
2022/12/24 04:03:50;;;;;;;;;;;;;;;;;;5108714;28;19915;-75
2022/12/24 04:06:36;;;;;;;;;;;;;;;;;;5119703;27;20347;-74
2022/12/24 04:09:23;;;;;;;;;;;;;;;;;;5126633;27;19911;-74
2022/12/24 04:12:09;;;;;;;;;;;;;;;;;;5119368;27;20779;-75
2022/12/24 04:14:55;;;;;;;;;;;;;;;;;;5122426;28;19917;-74
2022/12/24 04:17:42;;;;;;;;;;;;;;;;;;5121264;27;19931;-75
2022/12/24 04:20:28;;;;;;;;;;;;;;;;;;5125695;28;19916;-74
2022/12/24 04:23:15;;;;;;;;;;;;;;;;;;5130010;27;19927;-74
2022/12/24 04:26:01;;;;;;;;;;;;;;;;;;5123106;28;19916;-75
2022/12/24 04:28:48;;;;;;;;;;;;;;;;;;5121968;27;19920;-74
2022/12/24 04:31:35;;;;;;;;;;;;;;;;;;5108390;28;19924;-75
2022/12/24 04:34:21;;;;;;;;;;;;;;;;;;5122677;28;19925;-76
2022/12/24 04:37:08;;;;;;;;;;;;;;;;;;5122009;27;19926;-75
2022/12/24 04:39:54;;;;;;;;;;;;;;;;;;5117012;28;19918;-74
2022/12/24 04:42:41;;;;;;;;;;;;;;;;;;5099051;28;19912;-74
2022/12/24 04:45:27;;;;;;;;;;;;;;;;;;5123073;28;19956;-74
2022/12/24 04:48:14;;;;;;;;;;;;;;;;;;5124844;27;19926;-75
2022/12/24 04:51:00;;;;;;;;;;;;;;;;;;5123264;28;20325;-74
2022/12/24 04:53:47;;;;;;;;;;;;;;;;;;5116961;28;19911;-73
2022/12/24 04:56:33;;;;;;;;;;;;;;;;;;5111963;28;20290;-75
2022/12/24 04:59:20;;;;;;;;;;;;;;;;;;5121644;27;19915;-75
2022/12/24 05:02:06;;;;;;;;;;;;;;;;;;5114807;27;19915;-74
2022/12/24 05:04:53;;;;;;;;;;;;;;;;;;5127044;27;19912;-75
2022/12/24 05:07:39;;;;;;;;;;;;;;;;;;5121409;27;20294;-75
2022/12/24 05:10:26;;;;;;;;;;;;;;;;;;5118193;27;19918;-74
2022/12/24 05:13:12;;;;;;;;;;;;;;;;;;5131685;27;19912;-76
2022/12/24 05:15:59;;;;;;;;;;;;;;;;;;5128178;27;20342;-74
2022/12/24 05:18:45;;;;;;;;;;;;;;;;;;5121346;27;19931;-75
2022/12/24 05:21:32;;;;;;;;;;;;;;;;;;5118745;27;19928;-74
2022/12/24 05:27:23;;;;;;;;;;;;;;;;;;5119223;27;19946;-74
2022/12/24 05:30:11;;;;;;;;;;;;;;;;;;5126177;27;19919;-74
2022/12/24 05:32:57;;;;;;;;;;;;;;;;;;5100813;27;19919;-74
2022/12/24 05:35:44;;;;;;;;;;;;;;;;;;5102870;28;19918;-76
2022/12/24 05:38:30;;;;;;;;;;;;;;;;;;5104882;27;19912;-74
2022/12/24 05:41:17;;;;;;;;;;;;;;;;;;5108627;28;19919;-74
2022/12/24 05:44:03;;;;;;;;;;;;;;;;;;5101339;28;19908;-74
2022/12/24 05:46:50;;;;;;;;;;;;;;;;;;5093490;28;19923;-75
2022/12/24 05:49:36;;;;;;;;;;;;;;;;;;5107903;28;19923;-74
2022/12/24 05:52:23;;;;;;;;;;;;;;;;;;5096486;27;19918;-74
2022/12/24 05:55:09;;;;;;;;;;;;;;;;;;5095387;27;20443;-74
2022/12/24 05:57:56;;;;;;;;;;;;;;;;;;5101073;27;19915;-75
2022/12/24 06:00:42;;;;;;;;;;;;;;;;;;5097936;28;19916;-75
2022/12/24 06:03:29;;;;;;;;;;;;;;;;;;5094974;28;19908;-74
2022/12/24 06:06:17;;;;;;;;;;;;;;;;;;5107636;28;20621;-75
2022/12/24 06:09:04;;;;;;;;;;;;;;;;;;5105247;27;19930;-75
2022/12/24 06:11:51;;;;;;;;;;;;;;;;;;5094297;28;19930;-74
2022/12/24 06:14:37;;;;;;;;;;;;;;;;;;5094411;27;20447;-74
2022/12/24 06:17:24;;;;;;;;;;;;;;;;;;5101334;28;19919;-73
2022/12/24 06:20:10;;;;;;;;;;;;;;;;;;5094638;28;19923;-74
2022/12/24 06:22:57;;;;;;;;;;;;;;;;;;5100714;27;19924;-75
2022/12/24 06:25:43;;;;;;;;;;;;;;;;;;5096038;28;19912;-74
2022/12/24 06:28:30;;;;;;;;;;;;;;;;;;5108559;27;19919;-74
2022/12/24 06:31:16;;;;;;;;;;;;;;;;;;5100118;28;19911;-75
2022/12/24 06:34:03;;;;;;;;;;;;;;;;;;5106883;27;19965;-74
2022/12/24 06:36:49;;;;;;;;;;;;;;;;;;5106082;28;19923;-75
2022/12/24 06:39:35;;;;;;;;;;;;;;;;;;5109843;27;19935;-74
2022/12/24 06:42:23;;;;;;;;;;;;;;;;;;5097371;28;19916;-74
2022/12/24 06:45:09;;;;;;;;;;;;;;;;;;5095586;28;19918;-75
2022/12/24 06:47:56;;;;;;;;;;;;;;;;;;5106328;27;19923;-75
2022/12/24 06:50:42;;;;;;;;;;;;;;;;;;5098346;28;19916;-74
2022/12/24 06:53:29;;;;;;;;;;;;;;;;;;5106748;27;19912;-76
2022/12/24 06:56:15;;;;;;;;;;;;;;;;;;5102661;28;20382;-75
2022/12/24 06:59:02;;;;;;;;;;;;;;;;;;5098536;27;19916;-76
2022/12/24 07:01:49;;;;;;;;;;;;;;;;;;5101115;28;19918;-75
2022/12/24 07:04:35;;;;;;;;;;;;;;;;;;5105612;27;19916;-74
2022/12/24 07:07:21;;;;;;;;;;;;;;;;;;5096991;28;20616;-75
2022/12/24 07:10:08;;;;;;;;;;;;;;;;;;5103651;27;19922;-74
2022/12/24 07:12:54;;;;;;;;;;;;;;;;;;5096129;28;20275;-74
2022/12/24 07:15:41;;;;;;;;;;;;;;;;;;5091705;28;19922;-75
2022/12/24 07:18:27;;;;;;;;;;;;;;;;;;5099877;28;20320;-75
2022/12/24 07:21:14;;;;;;;;;;;;;;;;;;5094958;27;19923;-74
2022/12/24 07:24:00;;;;;;;;;;;;;;;;;;5100455;28;20402;-74
2022/12/24 07:26:47;;;;;;;;;;;;;;;;;;5090097;28;19916;-76
2022/12/24 07:29:33;;;;;;;;;;;;;;;;;;5104392;28;19916;-76
2022/12/24 07:32:20;;;;;;;;;;;;;;;;;;5095175;28;19912;-75
2022/12/24 07:35:07;;;;;;;;;;;;;;;;;;5100828;28;19919;-75
2022/12/24 07:37:53;;;;;;;;;;;;;;;;;;5092091;28;19908;-74
2022/12/24 07:40:40;;;;;;;;;;;;;;;;;;5096056;28;19922;-76
2022/12/24 07:43:26;;;;;;;;;;;;;;;;;;5095714;28;19923;-76
2022/12/24 07:46:13;;;;;;;;;;;;;;;;;;5095357;28;19912;-75
2022/12/24 07:48:59;;;;;;;;;;;;;;;;;;5105941;28;19927;-75
2022/12/24 07:51:46;;;;;;;;;;;;;;;;;;5101965;28;19922;-75
2022/12/24 07:54:32;;;;;;;;;;;;;;;;;;5098647;28;19933;-75
2022/12/24 07:57:19;;;;;;;;;;;;;;;;;;5093873;28;19912;-76
2022/12/24 08:00:05;;;;;;;;;;;;;;;;;;5100314;28;19912;-75
2022/12/24 08:02:52;;;;;;;;;;;;;;;;;;5099641;28;19912;-76
2022/12/24 08:05:38;;;;;;;;;;;;;;;;;;5095830;28;20390;-77
2022/12/24 08:08:25;;;;;;;;;;;;;;;;;;5098612;28;19923;-77
2022/12/24 08:11:11;;;;;;;;;;;;;;;;;;5097567;28;19922;-77
2022/12/24 08:13:58;;;;;;;;;;;;;;;;;;5094865;28;19925;-77
2022/12/24 08:16:45;;;;;;;;;;;;;;;;;;5094681;28;19912;-77
2022/12/24 08:19:31;;;;;;;;;;;;;;;;;;5111045;28;19942;-77
2022/12/24 08:22:17;;;;;;;;;;;;;;;;;;5093502;28;20408;-80
2022/12/24 08:25:04;;;;;;;;;;;;;;;;;;5125681;27;19957;-78
2022/12/24 08:27:50;;;;;;;;;;;;;;;;;;5118529;28;19920;-76
2022/12/24 08:30:37;;;;;;;;;;;;;;;;;;5119709;27;20398;-76
2022/12/24 08:33:23;;;;;;;;;;;;;;;;;;5123489;27;19979;-77
2022/12/24 08:36:10;;;;;;;;;;;;;;;;;;5126122;27;19916;-77
2022/12/24 08:38:57;;;;;;;;;;;;;;;;;;5131263;27;19919;-77
2022/12/24 08:41:43;;;;;;;;;;;;;;;;;;5127930;27;19925;-76
2022/12/24 08:44:29;;;;;;;;;;;;;;;;;;5128257;27;19919;-77
2022/12/24 08:47:16;;;;;;;;;;;;;;;;;;5107600;28;20385;-76
2022/12/24 08:50:03;;;;;;;;;;;;;;;;;;5110981;27;19927;-78
2022/12/24 08:52:49;;;;;;;;;;;;;;;;;;5122465;27;19915;-79
2022/12/24 08:55:36;;;;;;;;;;;;;;;;;;5125289;27;19911;-79
2022/12/24 08:58:22;;;;;;;;;;;;;;;;;;5107910;27;19926;-79
2022/12/24 09:01:09;;;;;;;;;;;;;;;;;;5125419;27;19915;-77
2022/12/24 09:03:55;;;;;;;;;;;;;;;;;;5122948;27;20439;-78
2022/12/24 09:06:42;;;;;;;;;;;;;;;;;;5120147;27;19922;-76
2022/12/24 09:09:28;;;;;;;;;;;;;;;;;;5101339;27;19926;-76
2022/12/24 09:12:15;;;;;;;;;;;;;;;;;;5101784;27;20378;-78
2022/12/24 09:15:01;;;;;;;;;;;;;;;;;;5122197;27;19922;-77
2022/12/24 09:17:48;;;;;;;;;;;;;;;;;;5124160;27;19919;-80
2022/12/24 09:20:34;;;;;;;;;;;;;;;;;;5121738;27;19938;-77
2022/12/24 09:23:21;;;;;;;;;;;;;;;;;;5124418;27;19920;-75
2022/12/24 09:26:07;;;;;;;;;;;;;;;;;;5124680;27;20267;-77
2022/12/24 09:28:54;;;;;;;;;;;;;;;;;;5120290;27;19929;-77
2022/12/24 09:31:40;;;;;;;;;;;;;;;;;;5106603;27;19915;-80
2022/12/24 09:34:27;;;;;;;;;;;;;;;;;;5119914;27;19916;-81
2022/12/24 09:37:13;;;;;;;;;;;;;;;;;;5122482;27;19919;-79
2022/12/24 09:39:59;;;;;;;;;;;;;;;;;;5100771;27;19919;-77
2022/12/24 09:42:46;;;;;;;;;;;;;;;;;;5094024;28;19920;-76
2022/12/24 09:45:32;;;;;;;;;;;;;;;;;;5116679;27;19911;-79
2022/12/24 09:48:19;;;;;;;;;;;;;;;;;;5097497;28;19924;-78
2022/12/24 09:51:05;;;;;;;;;;;;;;;;;;5123899;27;19915;-76
2022/12/24 09:53:52;;;;;;;;;;;;;;;;;;5125856;27;19923;-76
2022/12/24 09:56:38;;;;;;;;;;;;;;;;;;5122273;27;19912;-76
2022/12/24 09:59:25;;;;;;;;;;;;;;;;;;5120733;27;19958;-75
2022/12/24 10:02:11;;;;;;;;;;;;;;;;;;5126794;27;19922;-74
2022/12/24 10:04:58;;;;;;;;;;;;;;;;;;5123907;27;19938;-74
2022/12/24 10:07:45;;;;;;;;;;;;;;;;;;5126273;27;20437;-73
2022/12/24 10:10:31;;;;;;;;;;;;;;;;;;5114200;27;19912;-73
2022/12/24 10:13:18;;;;;;;;;;;;;;;;;;5112220;27;19912;-77
2022/12/24 10:16:04;;;;;;;;;;;;;;;;;;5124147;27;19911;-87
2022/12/24 10:18:50;;;;;;;;;;;;;;;;;;5121478;27;19922;-80
2022/12/24 10:21:37;;;;;;;;;;;;;;;;;;5119398;27;20012;-76
2022/12/24 10:24:23;;;;;;;;;;;;;;;;;;5112485;27;19938;-75
2022/12/24 10:27:10;;;;;;;;;;;;;;;;;;5108825;27;19942;-75
2022/12/24 10:29:56;;;;;;;;;;;;;;;;;;5116879;27;19941;-76
2022/12/24 10:32:43;;;;;;;;;;;;;;;;;;5116637;27;19922;-76
2022/12/24 10:35:29;;;;;;;;;;;;;;;;;;5126599;27;19915;-76
2022/12/24 10:38:16;;;;;;;;;;;;;;;;;;5117177;27;19911;-77
2022/12/24 10:41:03;;;;;;;;;;;;;;;;;;5108411;27;20410;-75
2022/12/24 10:43:49;;;;;;;;;;;;;;;;;;5094783;28;19923;-76
2022/12/24 10:46:36;;;;;;;;;;;;;;;;;;5102229;28;19916;-77
2022/12/24 10:49:22;;;;;;;;;;;;;;;;;;5100531;27;19915;-77
2022/12/24 10:52:09;;;;;;;;;;;;;;;;;;5106622;28;19936;-75
2022/12/24 10:54:56;;;;;;;;;;;;;;;;;;5106269;27;19912;-76
2022/12/24 10:57:42;;;;;;;;;;;;;;;;;;5106142;28;19912;-77
2022/12/24 11:00:29;;;;;;;;;;;;;;;;;;5100120;27;20321;-80
2022/12/24 11:03:15;;;;;;;;;;;;;;;;;;5105023;28;19923;-79
2022/12/24 11:06:02;;;;;;;;;;;;;;;;;;5108352;27;19949;-85
2022/12/24 11:08:49;;;;;;;;;;;;;;;;;;5125457;27;19923;-77
2022/12/24 11:11:35;;;;;;;;;;;;;;;;;;5100315;27;20383;-77
2022/12/24 11:14:22;;;;;;;;;;;;;;;;;;5106987;27;19912;-80
2022/12/24 11:17:08;;;;;;;;;;;;;;;;;;5108218;28;19931;-81
2022/12/24 11:19:55;;;;;;;;;;;;;;;;;;5105922;28;19923;-82
2022/12/24 11:22:41;;;;;;;;;;;;;;;;;;5104338;28;19950;-82
2022/12/24 11:25:33;;;;;;;;;;;;;;;;;;5100730;28;21689;-82
2022/12/24 11:28:20;;;;;;;;;;;;;;;;;;5098131;28;20070;-81
2022/12/24 11:31:06;;;;;;;;;;;;;;;;;;5099013;28;20610;-81
2022/12/24 11:33:53;;;;;;;;;;;;;;;;;;5100300;27;19912;-83
2022/12/24 11:36:39;;;;;;;;;;;;;;;;;;5094835;27;19920;-80
2022/12/24 11:39:26;;;;;;;;;;;;;;;;;;5088910;28;19923;-82
2022/12/24 11:42:13;;;;;;;;;;;;;;;;;;5095342;28;20390;-81
2022/12/24 11:44:59;;;;;;;;;;;;;;;;;;5098158;28;19930;-82
2022/12/24 11:47:46;;;;;;;;;;;;;;;;;;5094787;28;19930;-82
2022/12/24 11:50:34;;;;;;;;;;;;;;;;;;5092302;28;19916;-83
2022/12/24 11:53:20;;;;;;;;;;;;;;;;;;5097093;28;19919;-84
2022/12/24 11:56:07;;;;;;;;;;;;;;;;;;5095234;28;19912;-84
2022/12/24 11:58:53;;;;;;;;;;;;;;;;;;5093628;28;19919;-86
2022/12/24 12:01:40;;;;;;;;;;;;;;;;;;5099265;28;19916;-84
2022/12/24 12:04:27;;;;;;;;;;;;;;;;;;5089831;28;19912;-80
2022/12/24 12:07:13;;;;;;;;;;;;;;;;;;5101734;27;19927;-80
2022/12/24 12:10:00;;;;;;;;;;;;;;;;;;5102387;27;19920;-81
2022/12/24 12:12:47;;;;;;;;;;;;;;;;;;5095310;28;19930;-81
2022/12/24 12:15:33;;;;;;;;;;;;;;;;;;5100512;28;19916;-81
2022/12/24 12:18:19;;;;;;;;;;;;;;;;;;5107538;28;19975;-81
2022/12/24 12:21:06;;;;;;;;;;;;;;;;;;5102286;27;19934;-79
2022/12/24 12:23:52;;;;;;;;;;;;;;;;;;5108334;27;19919;-82
2022/12/24 12:26:39;;;;;;;;;;;;;;;;;;5099296;27;19916;-81
2022/12/24 12:29:25;;;;;;;;;;;;;;;;;;5091172;28;20749;-80
2022/12/24 12:32:12;;;;;;;;;;;;;;;;;;5098728;27;19922;-80
2022/12/24 12:35:00;;;;;;;;;;;;;;;;;;5106279;27;19907;-81
2022/12/24 12:37:46;;;;;;;;;;;;;;;;;;5109022;28;19911;-80
2022/12/24 12:40:33;;;;;;;;;;;;;;;;;;5102594;27;19918;-82
2022/12/24 12:43:19;;;;;;;;;;;;;;;;;;5098400;27;20485;-78
2022/12/24 12:46:06;;;;;;;;;;;;;;;;;;5125568;27;19931;-83
2022/12/24 12:48:52;;;;;;;;;;;;;;;;;;5101623;27;19938;-79
2022/12/24 12:51:39;;;;;;;;;;;;;;;;;;5104260;27;19912;-81
2022/12/24 12:54:26;;;;;;;;;;;;;;;;;;5096931;28;19912;-81
2022/12/24 12:57:12;;;;;;;;;;;;;;;;;;5093788;28;19923;-82
2022/12/24 12:59:59;;;;;;;;;;;;;;;;;;5107029;28;20470;-83
2022/12/24 13:02:45;;;;;;;;;;;;;;;;;;5096507;28;19912;-82
2022/12/24 13:05:32;;;;;;;;;;;;;;;;;;5100801;28;20118;-81
2022/12/24 13:08:18;;;;;;;;;;;;;;;;;;5117539;28;19920;-83
2022/12/24 13:11:05;;;;;;;;;;;;;;;;;;5114290;28;19915;-81
2022/12/24 13:13:52;;;;;;;;;;;;;;;;;;5113535;27;19918;-81
2022/12/24 13:16:39;;;;;;;;;;;;;;;;;;5108901;28;19923;-82
2022/12/24 13:19:25;;;;;;;;;;;;;;;;;;5101223;28;19916;-82
2022/12/24 13:22:12;;;;;;;;;;;;;;;;;;5107724;27;19930;-81
2022/12/24 13:24:58;;;;;;;;;;;;;;;;;;5101262;28;20438;-83
2022/12/24 13:27:45;;;;;;;;;;;;;;;;;;5097128;28;19919;-83
2022/12/24 13:30:34;;;;;;;;;;;;;;;;;;5098444;27;19958;-83
2022/12/24 13:33:21;;;;;;;;;;;;;;;;;;5118973;27;19923;-82
2022/12/24 13:36:07;;;;;;;;;;;;;;;;;;5121535;27;19934;-82
2022/12/24 13:38:56;;;;;;;;;;;;;;;;;;5116243;27;19912;-82
2022/12/24 13:41:42;;;;;;;;;;;;;;;;;;5128702;27;19911;-82
2022/12/24 13:44:31;;;;;;;;;;;;;;;;;;5117064;27;19912;-81
2022/12/24 13:47:20;;;;;;;;;;;;;;;;;;5127603;27;20367;-82
2022/12/24 13:50:06;;;;;;;;;;;;;;;;;;5119344;27;19930;-84
2022/12/24 13:52:53;;;;;;;;;;;;;;;;;;5123130;27;19923;-81
2022/12/24 13:55:39;;;;;;;;;;;;;;;;;;5115244;27;19911;-83
2022/12/24 13:58:29;;;;;;;;;;;;;;;;;;5119624;27;20278;-82
2022/12/24 14:01:16;;;;;;;;;;;;;;;;;;5098285;28;19919;-80
2022/12/24 14:04:05;;;;;;;;;;;;;;;;;;5095546;28;19912;-79
2022/12/24 14:06:51;;;;;;;;;;;;;;;;;;5109740;27;20397;-79
2022/12/24 14:09:38;;;;;;;;;;;;;;;;;;5097841;27;20280;-77
2022/12/24 14:12:25;;;;;;;;;;;;;;;;;;5118586;27;19923;-78
2022/12/24 14:15:11;;;;;;;;;;;;;;;;;;5117857;27;20373;-80
2022/12/24 14:17:58;;;;;;;;;;;;;;;;;;5117741;27;19912;-78
2022/12/24 14:20:44;;;;;;;;;;;;;;;;;;5119129;27;20263;-79
2022/12/24 14:23:31;;;;;;;;;;;;;;;;;;5124617;27;20004;-80
2022/12/24 14:26:17;;;;;;;;;;;;;;;;;;5114671;27;19918;-85
2022/12/24 14:29:04;;;;;;;;;;;;;;;;;;5124615;27;20282;-74
2022/12/24 14:31:51;;;;;;;;;;;;;;;;;;5119455;27;19927;-76
2022/12/24 14:34:37;;;;;;;;;;;;;;;;;;5118385;27;19918;-77
2022/12/24 14:37:24;;;;;;;;;;;;;;;;;;5126125;27;19911;-79
2022/12/24 14:40:10;;;;;;;;;;;;;;;;;;5110285;27;20618;-77
2022/12/24 14:42:57;;;;;;;;;;;;;;;;;;5117116;27;19922;-76
2022/12/24 14:45:43;;;;;;;;;;;;;;;;;;5122176;27;19919;-76
2022/12/24 14:48:32;;;;;;;;;;;;;;;;;;5123857;27;19923;-77
2022/12/24 14:51:18;;;;;;;;;;;;;;;;;;5119365;27;19919;-79
2022/12/24 14:54:05;;;;;;;;;;;;;;;;;;5114315;27;19916;-78
2022/12/24 14:56:51;;;;;;;;;;;;;;;;;;5118300;27;19911;-78
2022/12/24 14:59:38;;;;;;;;;;;;;;;;;;5124750;27;19926;-77
2022/12/24 15:02:24;;;;;;;;;;;;;;;;;;5093858;28;19935;-77
2022/12/24 15:05:11;;;;;;;;;;;;;;;;;;5103875;28;19922;-76
2022/12/24 15:07:57;;;;;;;;;;;;;;;;;;5115097;27;19927;-78
2022/12/24 15:10:44;;;;;;;;;;;;;;;;;;5118382;27;19926;-76
2022/12/24 15:13:30;;;;;;;;;;;;;;;;;;5118386;27;19908;-80
2022/12/24 15:16:17;;;;;;;;;;;;;;;;;;5115848;27;19915;-78
2022/12/24 15:19:03;;;;;;;;;;;;;;;;;;5099708;27;20278;-80
2022/12/24 15:21:50;;;;;;;;;;;;;;;;;;5114209;27;19969;-82
2022/12/24 15:24:36;;;;;;;;;;;;;;;;;;5119884;27;19911;-81
2022/12/24 15:27:22;;;;;;;;;;;;;;;;;;5114689;27;19916;-82
2022/12/24 15:30:09;;;;;;;;;;;;;;;;;;5120213;27;19916;-81
2022/12/24 15:32:56;;;;;;;;;;;;;;;;;;5126206;27;19923;-81
2022/12/24 15:35:42;;;;;;;;;;;;;;;;;;5104107;27;19912;-81
2022/12/24 15:38:28;;;;;;;;;;;;;;;;;;5115276;27;19911;-78
2022/12/24 15:41:15;;;;;;;;;;;;;;;;;;5117015;27;19911;-77
2022/12/24 15:44:03;;;;;;;;;;;;;;;;;;5113988;27;19911;-77
2022/12/24 15:46:49;;;;;;;;;;;;;;;;;;5111914;27;19927;-78
2022/12/24 15:49:36;;;;;;;;;;;;;;;;;;5097506;28;19930;-76
2022/12/24 15:52:23;;;;;;;;;;;;;;;;;;5117428;27;20322;-77
2022/12/24 15:55:12;;;;;;;;;;;;;;;;;;5119450;28;19918;-77
2022/12/24 15:57:58;;;;;;;;;;;;;;;;;;5113567;28;19923;-77
2022/12/24 16:00:45;;;;;;;;;;;;;;;;;;5117379;28;19927;-78
2022/12/24 16:03:31;;;;;;;;;;;;;;;;;;5118275;27;19920;-77
2022/12/24 16:06:18;;;;;;;;;;;;;;;;;;5117968;28;19930;-78
2022/12/24 16:09:04;;;;;;;;;;;;;;;;;;5116020;28;20299;-77
2022/12/24 16:11:51;;;;;;;;;;;;;;;;;;5126965;27;19930;-80
2022/12/24 16:14:40;;;;;;;;;;;;;;;;;;5110116;28;19930;-75
2022/12/24 16:17:26;;;;;;;;;;;;;;;;;;5115748;27;19907;-79
2022/12/24 16:20:13;;;;;;;;;;;;;;;;;;5086942;28;19923;-76
2022/12/24 16:22:59;;;;;;;;;;;;;;;;;;5091114;28;20387;-82
2022/12/24 16:25:46;;;;;;;;;;;;;;;;;;5089484;28;19912;-77
2022/12/24 16:28:32;;;;;;;;;;;;;;;;;;5086493;28;19920;-76
2022/12/24 16:31:19;;;;;;;;;;;;;;;;;;5093480;28;19916;-75
2022/12/24 16:34:05;;;;;;;;;;;;;;;;;;5091726;28;19923;-77
2022/12/24 16:36:52;;;;;;;;;;;;;;;;;;5107183;27;19918;-75
2022/12/24 16:39:38;;;;;;;;;;;;;;;;;;5113054;28;19912;-75
2022/12/24 16:45:30;;;;;;;;;;;;;;;;;;5126728;28;20421;-78
2022/12/24 16:48:16;;;;;;;;;;;;;;;;;;5120259;27;19919;-75
2022/12/24 16:51:03;;;;;;;;;;;;;;;;;;5119365;28;19916;-80
2022/12/24 16:53:49;;;;;;;;;;;;;;;;;;5118595;27;19913;-74
2022/12/24 16:56:36;;;;;;;;;;;;;;;;;;5120535;27;19916;-78
2022/12/24 16:59:22;;;;;;;;;;;;;;;;;;5116727;27;19911;-75
2022/12/24 17:02:09;;;;;;;;;;;;;;;;;;5103837;27;19964;-78
2022/12/24 17:04:55;;;;;;;;;;;;;;;;;;5126042;27;19969;-78
2022/12/24 17:07:42;;;;;;;;;;;;;;;;;;5125446;27;19912;-75
2022/12/24 17:10:28;;;;;;;;;;;;;;;;;;5118650;27;19912;-73
2022/12/24 17:13:15;;;;;;;;;;;;;;;;;;5124573;27;19926;-79
2022/12/24 17:16:02;;;;;;;;;;;;;;;;;;5118035;27;19919;-75
2022/12/24 17:18:49;;;;;;;;;;;;;;;;;;5123742;27;19993;-73
2022/12/24 17:21:37;;;;;;;;;;;;;;;;;;5115166;27;19923;-73
2022/12/24 17:24:24;;;;;;;;;;;;;;;;;;5118017;27;19915;-72
2022/12/24 17:27:11;;;;;;;;;;;;;;;;;;5114719;27;20674;-75
2022/12/24 17:29:58;;;;;;;;;;;;;;;;;;5107109;28;19923;-77
2022/12/24 17:32:44;;;;;;;;;;;;;;;;;;5115959;27;19922;-75
2022/12/24 17:35:30;;;;;;;;;;;;;;;;;;5116408;27;20455;-76
2022/12/24 17:38:17;;;;;;;;;;;;;;;;;;5117080;27;19922;-77
2022/12/24 17:41:03;;;;;;;;;;;;;;;;;;5113987;27;19912;-75
2022/12/24 17:43:50;;;;;;;;;;;;;;;;;;5120486;27;19922;-76
2022/12/24 17:46:36;;;;;;;;;;;;;;;;;;5121826;27;20416;-74
2022/12/24 17:49:23;;;;;;;;;;;;;;;;;;5104966;27;20010;-76
2022/12/24 17:52:10;;;;;;;;;;;;;;;;;;5121299;27;20345;-74
2022/12/24 17:54:57;;;;;;;;;;;;;;;;;;5118078;27;19912;-75
2022/12/24 17:57:43;;;;;;;;;;;;;;;;;;5125666;27;19918;-75
2022/12/24 18:00:29;;;;;;;;;;;;;;;;;;5108658;27;20362;-75
2022/12/24 18:03:16;;;;;;;;;;;;;;;;;;5116933;27;19916;-76
2022/12/24 18:06:03;;;;;;;;;;;;;;;;;;5112892;27;19912;-75
2022/12/24 18:08:49;;;;;;;;;;;;;;;;;;5123269;27;19919;-76
2022/12/24 18:11:36;;;;;;;;;;;;;;;;;;5124755;27;19908;-76
2022/12/24 18:14:22;;;;;;;;;;;;;;;;;;5120271;27;19923;-75
2022/12/24 18:17:09;;;;;;;;;;;;;;;;;;5109599;27;19914;-75
2022/12/24 18:19:55;;;;;;;;;;;;;;;;;;5116637;27;19915;-75
2022/12/24 18:22:42;;;;;;;;;;;;;;;;;;5121204;27;20753;-74
2022/12/24 18:25:28;;;;;;;;;;;;;;;;;;5124729;27;19907;-74
2022/12/24 18:28:15;;;;;;;;;;;;;;;;;;5119913;27;19924;-74
2022/12/24 18:31:01;;;;;;;;;;;;;;;;;;5117539;27;19915;-75
2022/12/24 18:33:48;;;;;;;;;;;;;;;;;;5120384;27;20371;-75
2022/12/24 18:36:37;;;;;;;;;;;;;;;;;;5104775;28;19916;-75
2022/12/24 18:39:23;;;;;;;;;;;;;;;;;;5104981;27;19911;-75
2022/12/24 18:42:13;;;;;;;;;;;;;;;;;;5105658;27;19920;-75
2022/12/24 18:44:59;;;;;;;;;;;;;;;;;;5103862;27;19994;-76
2022/12/24 18:47:46;;;;;;;;;;;;;;;;;;5095641;28;19916;-74
2022/12/24 18:50:32;;;;;;;;;;;;;;;;;;5089540;28;19924;-75
2022/12/24 18:53:19;;;;;;;;;;;;;;;;;;5100306;27;20352;-74
2022/12/24 18:56:05;;;;;;;;;;;;;;;;;;5104050;27;19918;-74
2022/12/24 18:58:52;;;;;;;;;;;;;;;;;;5093455;27;20283;-77
2022/12/24 19:01:38;;;;;;;;;;;;;;;;;;5089034;28;20540;-73
2022/12/24 19:04:25;;;;;;;;;;;;;;;;;;5097179;28;19923;-77
2022/12/24 19:07:11;;;;;;;;;;;;;;;;;;5107976;27;19911;-74